Time;durP1;ratioP1;P1;durP2;ratioP2;P2;SDS_P1;SDS_P2;PMS_P1;PMS_P2;Temp;Humidity;BMP_temperature;BMP_pressure;BME280_temperature;BME280_humidity;BME280_pressure;Samples;Min_cycle;Max_cycle;Signal;HPM_P1;HPM_P2
2023/10/03 00:00:28;;;;;;;77.97;60.85;;;24.00;99.90;;;;;;5066226;28;20032;-63
2023/10/03 00:02:55;;;;;;;70.03;55.45;;;23.70;99.90;;;;;;5066628;28;20087;-63
2023/10/03 00:05:22;;;;;;;81.50;59.50;;;23.80;99.90;;;;;;5067576;28;20047;-63
2023/10/03 00:07:55;;;;;;;91.88;64.55;;;25.20;99.90;;;;;;5062344;28;20087;-63
2023/10/03 00:10:22;;;;;;;82.00;61.20;;;24.20;99.90;;;;;;5047527;28;20373;-63
2023/10/03 00:12:49;;;;;;;87.45;62.53;;;25.80;99.90;;;;;;5054241;28;20028;-63
2023/10/03 00:15:15;;;;;;;86.00;64.60;;;24.70;99.90;;;;;;5066042;28;20036;-63
2023/10/03 00:17:41;;;;;;;85.93;64.50;;;23.90;99.90;;;;;;5067661;28;20577;-63
2023/10/03 00:20:08;;;;;;;89.35;64.28;;;26.30;99.90;;;;;;5067027;28;20040;-63
2023/10/03 00:22:34;;;;;;;90.88;64.60;;;24.70;99.90;;;;;;5066582;28;20029;-63
2023/10/03 00:25:01;;;;;;;83.57;61.95;;;25.90;99.90;;;;;;5061399;28;20095;-63
2023/10/03 00:27:28;;;;;;;87.53;66.03;;;24.30;99.90;;;;;;5047619;28;20037;-63
2023/10/03 00:29:55;;;;;;;94.28;67.70;;;24.80;99.90;;;;;;5047471;28;20037;-63
2023/10/03 00:32:20;;;;;;;93.15;66.68;;;25.70;99.90;;;;;;5047232;28;20091;-62
2023/10/03 00:34:46;;;;;;;88.80;65.22;;;24.00;99.90;;;;;;5047583;28;20080;-63
2023/10/03 00:37:12;;;;;;;94.22;67.88;;;24.20;99.90;;;;;;5048499;28;20051;-63
2023/10/03 00:39:37;;;;;;;92.15;68.25;;;25.90;99.90;;;;;;5046369;28;20082;-63
2023/10/03 00:42:09;;;;;;;92.30;67.50;;;25.90;99.90;;;;;;5047165;28;20073;-63
2023/10/03 00:44:34;;;;;;;93.28;67.15;;;25.80;99.90;;;;;;5051906;28;20051;-63
2023/10/03 00:47:00;;;;;;;91.05;67.07;;;24.10;99.90;;;;;;5067098;28;20052;-63
2023/10/03 00:49:28;;;;;;;92.75;67.80;;;24.10;99.90;;;;;;5053127;28;20049;-63
2023/10/03 00:51:56;;;;;;;91.28;67.75;;;24.60;99.90;;;;;;5049958;28;20067;-63
2023/10/03 00:54:22;;;;;;;90.60;66.32;;;24.00;99.90;;;;;;5065499;28;20056;-63
2023/10/03 00:56:49;;;;;;;88.03;66.22;;;25.60;99.90;;;;;;5055625;28;20083;-63
2023/10/03 00:59:17;;;;;;;86.97;64.78;;;25.80;99.90;;;;;;5062058;28;20040;-63
2023/10/03 01:01:45;;;;;;;83.72;64.75;;;24.00;99.90;;;;;;5060801;28;20094;-63
2023/10/03 01:04:19;;;;;;;86.55;65.10;;;26.00;99.90;;;;;;5065525;28;20614;-62
2023/10/03 01:06:46;;;;;;;89.25;67.03;;;24.20;99.90;;;;;;5054174;28;20167;-62
2023/10/03 01:09:20;;;;;;;82.15;64.47;;;24.20;99.90;;;;;;5053500;28;20049;-63
2023/10/03 01:11:48;;;;;;;86.72;64.53;;;24.90;99.90;;;;;;5065467;28;20129;-62
2023/10/03 01:14:15;;;;;;;81.10;64.97;;;24.70;99.90;;;;;;5067030;28;20055;-62
2023/10/03 01:16:41;;;;;;;81.47;64.25;;;24.60;99.90;;;;;;5049135;28;20522;-62
2023/10/03 01:19:14;;;;;;;84.13;63.42;;;26.40;99.90;;;;;;5049965;28;20557;-63
2023/10/03 01:21:45;;;;;;;90.20;65.45;;;24.10;99.90;;;;;;5051117;28;20462;-62
2023/10/03 01:24:20;;;;;;;82.85;61.78;;;25.00;99.90;;;;;;5058040;28;20411;-62
2023/10/03 01:26:46;;;;;;;84.30;65.82;;;25.90;99.90;;;;;;5066698;28;20036;-62
2023/10/03 01:29:11;;;;;;;83.72;64.65;;;25.60;99.90;;;;;;5049262;28;20045;-62
2023/10/03 01:31:40;;;;;;;80.53;63.03;;;25.50;99.90;;;;;;5050553;28;20041;-62
2023/10/03 01:34:05;;;;;;;84.75;64.10;;;24.50;99.90;;;;;;5050510;28;20049;-63
2023/10/03 01:36:31;;;;;;;80.40;63.35;;;25.50;99.90;;;;;;5050325;28;20051;-62
2023/10/03 01:38:57;;;;;;;79.30;63.05;;;25.40;99.90;;;;;;5051462;28;20036;-62
2023/10/03 01:41:22;;;;;;;83.15;64.45;;;25.50;99.90;;;;;;5050240;28;20133;-63
2023/10/03 01:43:49;;;;;;;84.00;61.50;;;25.30;99.90;;;;;;5062696;28;20135;-62
2023/10/03 01:46:17;;;;;;;82.00;64.35;;;24.40;99.90;;;;;;5070136;28;20053;-62
2023/10/03 01:48:43;;;;;;;79.45;62.80;;;25.20;99.90;;;;;;5070721;28;20044;-62
2023/10/03 01:51:09;;;;;;;84.35;62.33;;;25.30;99.90;;;;;;5063142;28;20061;-62
2023/10/03 01:53:35;;;;;;;86.45;63.05;;;24.70;99.90;;;;;;5051844;28;20045;-63
2023/10/03 01:56:03;;;;;;;81.78;62.58;;;25.30;99.90;;;;;;5069602;28;20517;-62
2023/10/03 01:58:29;;;;;;;81.22;62.30;;;24.80;99.90;;;;;;5058377;28;20059;-62
2023/10/03 02:00:55;;;;;;;79.93;63.28;;;23.80;99.90;;;;;;5064567;28;20115;-62
2023/10/03 02:03:22;;;;;;;82.13;60.45;;;24.20;99.90;;;;;;5062833;28;20052;-62
2023/10/03 02:05:48;;;;;;;75.93;59.75;;;24.90;99.90;;;;;;5061038;28;20040;-62
2023/10/03 02:08:15;;;;;;;76.60;59.58;;;24.80;99.90;;;;;;5069947;28;20554;-62
2023/10/03 02:10:45;;;;;;;85.55;62.90;;;24.10;99.90;;;;;;5062686;28;20050;-62
2023/10/03 02:13:17;;;;;;;80.85;59.47;;;24.80;99.90;;;;;;5069833;28;20064;-64
2023/10/03 02:15:50;;;;;;;72.13;56.05;;;24.80;99.90;;;;;;5054141;28;20037;-64
2023/10/03 02:18:19;;;;;;;76.90;57.03;;;24.90;99.90;;;;;;5051021;28;20455;-64
2023/10/03 02:20:51;;;;;;;79.35;56.50;;;25.30;99.90;;;;;;5059977;28;20036;-64
2023/10/03 02:23:23;;;;;;;76.78;55.83;;;25.10;99.90;;;;;;5054345;28;20052;-65
2023/10/03 02:25:54;;;;;;;68.43;53.58;;;24.20;99.90;;;;;;5069348;28;20040;-64
2023/10/03 02:28:20;;;;;;;71.57;53.95;;;24.20;99.90;;;;;;5065933;28;20044;-64
2023/10/03 02:30:47;;;;;;;73.97;55.33;;;25.40;99.90;;;;;;5059606;28;20410;-65
2023/10/03 02:33:14;;;;;;;68.88;53.45;;;25.50;99.90;;;;;;5069809;28;20040;-64
2023/10/03 02:35:47;;;;;;;66.60;52.38;;;24.30;99.90;;;;;;5061191;28;20186;-65
2023/10/03 02:38:29;;;;;;;72.90;52.53;;;24.90;99.90;;;;;;5049922;28;20048;-64
2023/10/03 02:40:55;;;;;;;69.30;52.80;;;25.30;99.90;;;;;;5081394;28;20419;-65
2023/10/03 02:43:21;;;;;;;68.07;51.67;;;25.50;99.90;;;;;;5049336;28;20033;-65
2023/10/03 02:45:47;;;;;;;68.68;51.30;;;25.50;99.90;;;;;;5071835;28;20124;-65
2023/10/03 02:48:15;;;;;;;69.55;51.72;;;25.30;99.90;;;;;;5060072;28;20040;-65
2023/10/03 02:50:46;;;;;;;64.07;50.40;;;25.40;99.90;;;;;;5067474;28;20423;-65
2023/10/03 02:53:12;;;;;;;67.78;51.47;;;25.60;99.90;;;;;;5056341;28;20123;-64
2023/10/03 02:55:40;;;;;;;64.45;48.67;;;25.40;99.90;;;;;;5049025;28;20044;-64
2023/10/03 02:58:05;;;;;;;66.20;49.72;;;24.70;99.90;;;;;;5048986;28;20534;-65
2023/10/03 03:00:33;;;;;;;67.55;49.38;;;24.70;99.90;;;;;;5048981;28;20045;-65
2023/10/03 03:02:59;;;;;;;66.22;50.53;;;25.20;99.90;;;;;;5048639;28;20070;-64
2023/10/03 03:05:35;;;;;;;63.72;49.72;;;24.90;99.90;;;;;;5048843;28;20044;-65
2023/10/03 03:08:02;;;;;;;;;;;25.70;99.90;;;;;;5049429;28;20045;-64
2023/10/03 03:10:28;;;;;;;63.70;48.25;;;25.60;99.90;;;;;;5059235;28;20002;-65
2023/10/03 03:12:54;;;;;;;69.63;50.63;;;25.00;99.90;;;;;;5054684;28;20218;-65
2023/10/03 03:15:23;;;;;;;65.43;49.25;;;24.80;99.90;;;;;;5047629;28;20057;-64
2023/10/03 03:17:53;;;;;;;66.70;49.83;;;25.60;99.90;;;;;;5047195;28;20048;-65
2023/10/03 03:20:26;;;;;;;63.72;50.08;;;25.30;99.90;;;;;;5062453;28;20158;-64
2023/10/03 03:22:53;;;;;;;61.83;48.88;;;24.90;99.90;;;;;;5049907;28;20053;-61
2023/10/03 03:25:36;;;;;;;67.10;50.00;;;24.90;99.90;;;;;;5051324;28;20040;-60
2023/10/03 03:28:13;;;;;;;64.47;47.85;;;25.70;99.90;;;;;;5049754;28;20464;-60
2023/10/03 03:30:45;;;;;;;60.95;48.47;;;24.90;99.90;;;;;;5047662;28;20106;-60
2023/10/03 03:33:19;;;;;;;61.70;49.15;;;25.40;99.90;;;;;;5052796;28;20039;-60
2023/10/03 03:35:48;;;;;;;63.83;47.10;;;25.20;99.90;;;;;;5051547;28;20518;-62
2023/10/03 03:38:18;;;;;;;63.35;47.53;;;25.80;99.90;;;;;;5056504;28;20128;-61
2023/10/03 03:40:55;;;;;;;63.33;48.42;;;25.80;99.90;;;;;;5049894;28;20052;-61
2023/10/03 03:43:21;;;;;;;63.42;47.38;;;24.90;99.90;;;;;;5048360;28;20059;-60
2023/10/03 03:45:48;;;;;;;64.35;49.42;;;25.00;99.90;;;;;;5061360;28;20076;-61
2023/10/03 03:48:14;;;;;;;59.03;46.42;;;25.40;99.90;;;;;;5051127;28;20119;-60
2023/10/03 03:50:41;;;;;;;61.83;47.55;;;25.50;99.90;;;;;;5053210;28;20047;-60
2023/10/03 03:53:07;;;;;;;59.88;47.15;;;24.90;99.90;;;;;;5057499;28;20040;-61
2023/10/03 03:55:36;;;;;;;59.03;46.90;;;25.10;99.90;;;;;;5053077;28;20552;-60
2023/10/03 03:58:07;;;;;;;60.72;46.05;;;25.20;99.90;;;;;;5050678;28;20100;-61
2023/10/03 04:00:34;;;;;;;55.35;44.78;;;25.00;99.90;;;;;;5055285;28;20102;-62
2023/10/03 04:03:08;;;;;;;62.70;48.13;;;25.20;99.90;;;;;;5058372;28;20120;-61
2023/10/03 04:05:34;;;;;;;59.60;45.42;;;26.20;99.90;;;;;;5059616;28;20041;-62
2023/10/03 04:08:00;;;;;;;56.67;45.15;;;25.40;99.90;;;;;;5051052;28;20144;-62
2023/10/03 04:10:26;;;;;;;58.15;46.05;;;26.20;99.90;;;;;;5061243;28;20047;-60
2023/10/03 04:12:54;;;;;;;61.75;46.42;;;26.40;99.90;;;;;;5051546;28;20840;-60
2023/10/03 04:15:20;;;;;;;57.35;44.13;;;25.40;99.90;;;;;;5048442;28;20047;-60
2023/10/03 04:17:46;;;;;;;52.58;38.85;;;26.50;99.90;;;;;;5074930;28;20045;-60
2023/10/03 04:22:50;;;;;;;64.32;43.70;;;26.70;99.90;;;;;;5047686;28;20052;-60
2023/10/03 04:25:20;;;;;;;71.97;47.10;;;25.60;99.90;;;;;;5047578;28;20384;-61
2023/10/03 04:27:51;;;;;;;77.88;46.15;;;26.60;99.90;;;;;;5047630;28;20169;-61
2023/10/03 04:30:19;;;;;;;70.72;45.47;;;26.50;99.90;;;;;;5049340;28;20431;-60
2023/10/03 04:32:47;;;;;;;78.40;48.75;;;26.30;99.90;;;;;;5063743;28;20048;-62
2023/10/03 04:35:14;;;;;;;70.38;47.13;;;25.60;99.90;;;;;;5045934;28;20072;-62
2023/10/03 04:37:42;;;;;;;70.18;46.88;;;25.40;99.90;;;;;;5047552;28;20566;-62
2023/10/03 04:40:10;;;;;;;71.47;43.97;;;25.40;99.90;;;;;;5045750;28;20041;-62
2023/10/03 04:42:38;;;;;;;66.57;45.15;;;25.30;99.90;;;;;;5051278;28;20072;-62
2023/10/03 04:45:07;;;;;;;78.10;48.00;;;27.30;99.90;;;;;;5067319;28;20051;-62
2023/10/03 04:47:33;;;;;;;74.15;47.45;;;25.20;99.90;;;;;;5067869;28;20083;-62
2023/10/03 04:50:01;;;;;;;75.18;48.45;;;25.10;99.90;;;;;;5066476;28;20067;-61
2023/10/03 04:52:27;;;;;;;83.20;51.58;;;26.50;99.90;;;;;;5070407;28;20044;-62
2023/10/03 04:54:52;;;;;;;76.40;50.78;;;25.60;99.90;;;;;;5064087;28;20037;-62
2023/10/03 04:57:18;;;;;;;80.00;50.40;;;26.30;99.90;;;;;;5051518;28;20047;-62
2023/10/03 04:59:43;;;;;;;83.65;52.42;;;26.50;99.90;;;;;;5051443;28;20060;-62
2023/10/03 05:02:11;;;;;;;83.78;51.95;;;26.50;99.90;;;;;;5051098;28;20132;-62
2023/10/03 05:04:36;;;;;;;85.32;56.10;;;25.10;99.90;;;;;;5051358;28;20042;-62
2023/10/03 05:07:02;;;;;;;81.88;53.72;;;26.20;99.90;;;;;;5053658;28;20045;-62
2023/10/03 05:09:30;;;;;;;86.70;54.13;;;25.80;99.90;;;;;;5053320;28;20115;-62
2023/10/03 05:11:56;;;;;;;79.72;55.47;;;24.80;99.90;;;;;;5068304;28;20571;-62
2023/10/03 05:14:22;;;;;;;84.75;54.85;;;25.30;99.90;;;;;;5050907;28;20052;-62
2023/10/03 05:16:50;;;;;;;88.65;56.17;;;26.40;99.90;;;;;;5050662;28;20487;-62
2023/10/03 05:19:21;;;;;;;86.75;53.60;;;24.60;99.90;;;;;;5056700;28;20168;-62
2023/10/03 05:21:47;;;;;;;85.70;55.42;;;24.80;99.90;;;;;;5069850;28;20044;-62
2023/10/03 05:24:14;;;;;;;91.15;57.35;;;26.30;99.90;;;;;;5070501;28;20493;-62
2023/10/03 05:26:41;;;;;;;88.63;55.78;;;26.20;99.90;;;;;;5068140;28;20457;-62
2023/10/03 05:29:07;;;;;;;90.60;56.83;;;25.20;99.90;;;;;;5050932;28;20049;-62
2023/10/03 05:31:34;;;;;;;91.82;58.13;;;24.40;99.90;;;;;;5051530;28;20124;-62
2023/10/03 05:34:00;;;;;;;87.63;58.63;;;24.40;99.90;;;;;;5050530;28;20087;-63
2023/10/03 05:36:27;;;;;;;83.93;55.67;;;25.90;99.90;;;;;;5050672;28;20643;-62
2023/10/03 05:38:52;;;;;;;79.50;55.17;;;24.70;99.90;;;;;;5050694;28;20414;-62
2023/10/03 05:41:23;;;;;;;86.20;56.38;;;25.30;99.90;;;;;;5051778;28;20045;-62
2023/10/03 05:43:49;;;;;;;79.97;54.25;;;24.40;99.90;;;;;;5056919;28;20051;-61
2023/10/03 05:46:15;;;;;;;80.78;53.45;;;24.30;99.90;;;;;;5050046;28;20079;-60
2023/10/03 05:48:42;;;;;;;85.93;53.15;;;25.20;99.90;;;;;;5050248;28;20049;-61
2023/10/03 05:51:08;;;;;;;81.13;52.65;;;25.00;99.90;;;;;;5049932;28;20099;-61
2023/10/03 05:53:34;;;;;;;95.68;51.88;;;25.20;99.90;;;;;;5053549;28;20056;-62
2023/10/03 05:56:00;;;;;;;92.38;49.67;;;25.00;99.90;;;;;;5067988;28;20047;-61
2023/10/03 05:58:27;;;;;;;90.63;51.30;;;24.30;99.90;;;;;;5055174;28;20122;-62
2023/10/03 06:00:52;;;;;;;95.30;48.83;;;24.80;99.90;;;;;;5052750;28;20462;-60
2023/10/03 06:03:18;;;;;;;87.82;46.17;;;24.50;99.90;;;;;;5068300;28;20123;-61
2023/10/03 06:05:45;;;;;;;83.57;44.67;;;25.40;99.90;;;;;;5070276;28;20102;-61
2023/10/03 06:08:12;;;;;;;78.35;43.72;;;25.10;99.90;;;;;;5066727;28;20052;-61
2023/10/03 06:10:39;;;;;;;76.57;43.45;;;25.40;99.90;;;;;;5054189;28;20478;-60
2023/10/03 06:13:10;;;;;;;63.40;41.17;;;25.20;99.90;;;;;;5056571;28;20036;-59
2023/10/03 06:15:40;;;;;;;57.33;40.28;;;24.90;99.90;;;;;;5081189;28;20040;-62
2023/10/03 06:18:06;;;;;;;63.03;39.78;;;23.50;99.90;;;;;;5057617;28;20036;-60
2023/10/03 06:20:34;;;;;;;51.92;37.53;;;24.70;99.90;;;;;;5064352;28;20067;-60
2023/10/03 06:22:59;;;;;;;51.42;37.80;;;25.00;99.90;;;;;;5058478;28;20047;-60
2023/10/03 06:25:25;;;;;;;45.80;37.33;;;25.00;99.90;;;;;;5056330;28;20441;-60
2023/10/03 06:27:50;;;;;;;48.13;36.47;;;24.90;99.90;;;;;;5065573;28;20205;-61
2023/10/03 06:30:18;;;;;;;45.72;36.10;;;24.60;99.90;;;;;;5062254;28;20032;-60
2023/10/03 06:32:45;;;;;;;42.35;35.72;;;24.70;99.90;;;;;;5063604;28;20445;-60
2023/10/03 06:35:12;;;;;;;40.38;34.28;;;23.30;99.90;;;;;;5066279;28;20044;-59
2023/10/03 06:37:38;;;;;;;43.00;36.33;;;23.30;99.90;;;;;;5064799;28;20052;-59
2023/10/03 06:40:07;;;;;;;39.78;35.50;;;23.70;99.90;;;;;;5063956;28;20052;-61
2023/10/03 06:42:36;;;;;;;43.30;35.90;;;23.00;99.90;;;;;;5064931;28;20036;-60
2023/10/03 06:45:03;;;;;;;46.42;35.83;;;23.00;99.90;;;;;;5063690;28;20048;-60
2023/10/03 06:47:29;;;;;;;40.30;34.60;;;23.00;99.90;;;;;;5059619;28;20055;-60
2023/10/03 06:49:55;;;;;;;37.17;33.15;;;23.20;99.90;;;;;;5047189;28;20044;-60
2023/10/03 06:52:21;;;;;;;40.33;34.05;;;22.90;99.90;;;;;;5060457;28;20056;-59
2023/10/03 06:54:47;;;;;;;40.25;34.45;;;23.50;99.90;;;;;;5057365;28;20200;-60
2023/10/03 06:57:13;;;;;;;41.78;34.58;;;24.20;99.90;;;;;;5058525;28;20047;-61
2023/10/03 06:59:39;;;;;;;43.25;34.72;;;23.90;99.90;;;;;;5061098;28;20048;-61
2023/10/03 07:02:05;;;;;;;36.05;31.55;;;22.80;99.90;;;;;;5061234;28;20044;-61
2023/10/03 07:04:30;;;;;;;35.45;31.88;;;22.90;99.90;;;;;;5058220;28;20044;-61
2023/10/03 07:06:56;;;;;;;38.15;34.08;;;22.90;99.90;;;;;;5061243;28;20032;-61
2023/10/03 07:09:22;;;;;;;44.50;34.45;;;23.30;99.90;;;;;;5061465;28;20036;-61
2023/10/03 07:11:48;;;;;;;38.45;34.22;;;23.50;99.90;;;;;;5062508;28;20174;-61
2023/10/03 07:14:16;;;;;;;40.25;33.67;;;24.10;99.90;;;;;;5056269;28;20114;-61
2023/10/03 07:16:42;;;;;;;38.15;34.35;;;22.90;99.90;;;;;;5054014;28;20052;-61
2023/10/03 07:19:14;;;;;;;37.75;33.85;;;23.30;99.90;;;;;;5068027;28;20042;-63
2023/10/03 07:21:40;;;;;;;37.63;31.88;;;23.50;99.90;;;;;;5061134;28;20048;-61
2023/10/03 07:24:05;;;;;;;35.85;32.08;;;23.30;99.90;;;;;;5065218;28;20052;-61
2023/10/03 07:26:32;;;;;;;40.42;32.97;;;23.40;99.90;;;;;;5063577;28;20128;-61
2023/10/03 07:29:00;;;;;;;36.80;31.67;;;23.80;99.90;;;;;;5052864;28;20048;-62
2023/10/03 07:31:25;;;;;;;36.63;32.50;;;24.00;99.90;;;;;;5050615;28;20044;-61
2023/10/03 07:33:52;;;;;;;37.60;33.60;;;23.40;99.90;;;;;;5054649;28;20464;-61
2023/10/03 07:36:17;;;;;;;35.00;31.40;;;23.60;99.90;;;;;;5056579;28;20126;-61
2023/10/03 07:38:45;;;;;;;35.20;29.88;;;23.80;99.90;;;;;;5053206;28;20072;-61
2023/10/03 07:41:13;;;;;;;32.35;28.95;;;23.80;99.90;;;;;;5058449;28;20355;-60
2023/10/03 07:43:45;;;;;;;32.17;28.88;;;23.60;99.90;;;;;;5061278;28;20494;-61
2023/10/03 07:46:11;;;;;;;31.17;28.08;;;23.50;99.90;;;;;;5059771;28;20508;-61
2023/10/03 07:48:37;;;;;;;32.90;29.65;;;22.90;99.90;;;;;;5056142;28;20033;-61
2023/10/03 07:51:05;;;;;;;34.78;31.52;;;23.10;99.90;;;;;;5058340;28;20567;-61
2023/10/03 07:53:31;;;;;;;35.78;32.15;;;23.10;99.90;;;;;;5058279;28;20048;-61
2023/10/03 07:55:57;;;;;;;38.35;34.22;;;22.40;99.90;;;;;;5052535;28;20060;-61
2023/10/03 07:58:22;;;;;;;34.28;31.17;;;22.80;99.90;;;;;;5060307;28;20110;-61
2023/10/03 08:00:50;;;;;;;34.50;31.30;;;22.50;99.90;;;;;;5056170;28;20647;-62
2023/10/03 08:03:15;;;;;;;33.90;30.77;;;22.90;99.90;;;;;;5055956;28;20133;-62
2023/10/03 08:05:41;;;;;;;38.90;34.75;;;22.00;99.90;;;;;;5052367;28;20185;-61
2023/10/03 08:08:08;;;;;;;39.08;35.63;;;22.00;99.90;;;;;;5054802;28;20036;-61
2023/10/03 08:10:33;;;;;;;37.38;33.85;;;22.10;99.90;;;;;;5051028;28;20033;-60
2023/10/03 08:12:59;;;;;;;38.35;34.83;;;22.60;99.90;;;;;;5049446;28;20036;-62
2023/10/03 08:15:32;;;;;;;38.33;34.72;;;22.70;99.90;;;;;;5052239;28;20819;-61
2023/10/03 08:17:58;;;;;;;35.90;32.63;;;21.60;99.90;;;;;;5060048;28;20044;-61
2023/10/03 08:20:26;;;;;;;37.75;34.30;;;21.80;99.90;;;;;;5053756;28;20476;-61
2023/10/03 08:22:52;;;;;;;37.85;34.00;;;22.40;99.90;;;;;;5057712;28;20055;-61
2023/10/03 08:25:22;;;;;;;38.17;34.42;;;22.70;99.90;;;;;;5059548;28;20044;-61
2023/10/03 08:27:52;;;;;;;37.88;34.17;;;22.90;99.90;;;;;;5061681;28;20128;-60
2023/10/03 08:30:28;;;;;;;35.17;31.98;;;21.90;99.90;;;;;;5055278;28;20561;-60
2023/10/03 08:33:06;;;;;;;33.90;30.90;;;22.80;99.90;;;;;;5063922;28;20024;-61
2023/10/03 08:35:35;;;;;;;31.83;28.85;;;21.80;99.90;;;;;;5057247;28;20037;-61
2023/10/03 08:38:05;;;;;;;28.42;25.77;;;21.80;99.90;;;;;;5057569;28;20051;-61
2023/10/03 08:40:39;;;;;;;29.92;27.13;;;21.90;99.90;;;;;;5064479;28;20090;-60
2023/10/03 08:43:08;;;;;;;30.33;27.35;;;22.20;99.90;;;;;;5059239;28;20072;-60
2023/10/03 08:45:41;;;;;;;32.97;29.83;;;22.20;99.90;;;;;;5059212;28;20044;-61
2023/10/03 08:48:09;;;;;;;31.58;28.95;;;22.30;99.90;;;;;;5061586;28;20055;-61
2023/10/03 08:50:52;;;;;;;32.22;29.52;;;21.50;99.90;;;;;;5053456;28;20507;-61
2023/10/03 08:53:27;;;;;;;35.97;32.70;;;22.10;99.90;;;;;;5060110;28;20045;-61
2023/10/03 08:55:58;;;;;;;38.13;34.85;;;22.20;99.90;;;;;;5060929;28;20050;-61
2023/10/03 08:58:26;;;;;;;35.83;32.53;;;22.50;99.90;;;;;;5054900;28;20037;-62
2023/10/03 09:00:59;;;;;;;38.30;34.42;;;21.60;99.90;;;;;;5051164;28;20742;-61
2023/10/03 09:03:29;;;;;;;35.70;32.58;;;21.70;99.90;;;;;;5050152;28;20045;-61
2023/10/03 09:05:58;;;;;;;36.17;32.72;;;22.70;99.90;;;;;;5050584;28;20379;-61
2023/10/03 09:08:27;;;;;;;34.03;31.02;;;23.00;99.90;;;;;;5045868;28;20069;-61
2023/10/03 09:10:53;;;;;;;34.97;31.60;;;22.70;99.90;;;;;;5052831;28;20060;-61
2023/10/03 09:13:23;;;;;;;38.35;34.70;;;22.50;99.90;;;;;;5052911;28;20068;-59
2023/10/03 09:15:49;;;;;;;38.08;34.08;;;22.60;99.90;;;;;;5049697;28;20033;-62
2023/10/03 09:18:21;;;;;;;35.25;31.77;;;22.40;99.90;;;;;;5058422;28;20033;-59
2023/10/03 09:20:49;;;;;;;30.52;27.52;;;22.10;99.90;;;;;;5050772;28;20037;-58
2023/10/03 09:23:17;;;;;;;31.20;27.98;;;22.00;99.90;;;;;;5058370;28;20263;-59
2023/10/03 09:25:48;;;;;;;27.33;24.83;;;22.20;99.90;;;;;;5052035;28;20048;-59
2023/10/03 09:28:14;;;;;;;25.65;22.95;;;22.30;99.90;;;;;;5053538;28;20106;-59
2023/10/03 09:30:41;;;;;;;25.88;23.15;;;22.30;99.90;;;;;;5056587;28;20769;-60
2023/10/03 09:33:17;;;;;;;21.85;19.85;;;22.70;99.90;;;;;;5062011;28;20045;-60
2023/10/03 09:35:57;;;;;;;22.48;20.15;;;23.30;99.90;;;;;;5054953;28;20380;-59
2023/10/03 09:38:42;;;;;;;26.52;23.95;;;22.30;99.90;;;;;;5061806;28;20603;-59
2023/10/03 09:41:16;;;;;;;19.00;17.40;;;22.30;99.90;;;;;;5056648;28;20127;-59
2023/10/03 09:43:47;;;;;;;22.58;20.75;;;23.30;99.90;;;;;;5061450;28;20705;-58
2023/10/03 09:46:14;;;;;;;25.27;22.88;;;22.40;99.90;;;;;;5062608;28;20129;-58
2023/10/03 09:48:39;;;;;;;30.58;27.35;;;22.50;99.90;;;;;;5056175;28;20458;-59
2023/10/03 09:51:05;;;;;;;29.13;26.27;;;22.40;99.90;;;;;;5066495;28;20076;-59
2023/10/03 09:53:39;;;;;;;32.28;29.08;;;22.40;99.90;;;;;;5065302;28;20083;-61
2023/10/03 09:56:08;;;;;;;33.03;29.73;;;22.50;99.90;;;;;;5066533;28;20043;-60
2023/10/03 09:58:34;;;;;;;34.90;31.50;;;22.20;99.90;;;;;;5056523;28;20047;-60
2023/10/03 10:01:01;;;;;;;34.08;30.73;;;22.30;99.90;;;;;;5060515;28;20056;-59
2023/10/03 10:03:36;;;;;;;33.08;29.88;;;22.20;99.90;;;;;;5065150;28;20380;-60
2023/10/03 10:06:37;;;;;;;32.67;29.25;;;21.90;99.90;;;;;;5066424;28;20537;-61
2023/10/03 10:09:14;;;;;;;31.33;28.08;;;22.10;99.90;;;;;;5061292;28;20076;-60
2023/10/03 10:12:11;;;;;;;30.23;27.25;;;22.00;99.90;;;;;;5067986;28;20069;-69
2023/10/03 10:15:02;;;;;;;18.77;16.73;;;22.20;99.90;;;;;;5042434;28;20040;-69
2023/10/03 10:17:51;;;;;;;17.65;15.85;;;22.40;99.90;;;;;;5064664;28;20515;-68
2023/10/03 10:20:38;;;;;;;24.42;19.65;;;22.60;99.90;;;;;;5061922;28;20036;-70
2023/10/03 10:25:42;;;;;;;21.48;19.33;;;22.40;99.90;;;;;;5062072;28;20094;-71
2023/10/03 10:28:20;;;;;;;19.45;16.25;;;22.50;99.90;;;;;;5060038;28;20123;-70
2023/10/03 10:31:11;;;;;;;22.63;15.80;;;22.70;99.90;;;;;;5054880;28;20486;-69
2023/10/03 10:33:37;;;;;;;16.08;14.20;;;22.70;99.90;;;;;;5037643;28;20048;-69
2023/10/03 10:36:03;;;;;;;21.05;13.65;;;22.70;99.90;;;;;;5055556;28;20757;-70
2023/10/03 10:38:32;;;;;;;19.75;14.02;;;22.70;99.90;;;;;;5057634;28;20099;-71
2023/10/03 10:41:17;;;;;;;19.73;17.73;;;22.70;99.90;;;;;;5053797;28;20076;-69
2023/10/03 10:44:09;;;;;;;18.25;14.80;;;22.70;99.90;;;;;;5051758;28;20083;-69
2023/10/03 10:46:38;;;;;;;16.20;14.43;;;22.80;99.90;;;;;;5053281;28;20090;-69
2023/10/03 10:49:06;;;;;;;18.95;15.52;;;22.90;98.30;;;;;;5052678;28;20036;-63
2023/10/03 10:51:36;;;;;;;15.27;12.40;;;22.80;1.00;;;;;;5054207;28;20067;-62
2023/10/03 10:54:04;;;;;;;15.80;12.55;;;22.80;1.00;;;;;;5042093;28;20058;-63
2023/10/03 10:56:32;;;;;;;17.02;13.02;;;22.80;5.70;;;;;;5056697;28;20048;-64
2023/10/03 10:59:07;;;;;;;14.32;12.85;;;22.80;99.90;;;;;;5059782;28;20053;-62
2023/10/03 11:01:39;;;;;;;16.27;12.55;;;22.80;99.90;;;;;;5053695;28;20039;-62
2023/10/03 11:04:05;;;;;;;19.25;15.48;;;22.80;99.90;;;;;;5050413;28;20049;-63
2023/10/03 11:06:31;;;;;;;20.50;14.45;;;22.80;99.90;;;;;;5054495;28;20045;-62
2023/10/03 11:08:57;;;;;;;19.20;15.32;;;22.90;1.00;;;;;;5059765;28;20552;-63
2023/10/03 11:11:35;;;;;;;18.33;14.85;;;22.90;34.90;;;;;;5055895;28;20040;-62
2023/10/03 11:14:01;;;;;;;19.33;16.88;;;23.00;99.90;;;;;;5063781;28;20086;-64
2023/10/03 11:16:27;;;;;;;21.38;18.15;;;23.00;52.10;;;;;;5054188;28;20043;-62
2023/10/03 11:18:54;;;;;;;16.63;13.65;;;22.60;99.90;;;;;;5055221;28;20055;-63
2023/10/03 11:21:22;;;;;;;17.58;15.77;;;22.60;1.00;;;;;;5060663;28;20098;-64
2023/10/03 11:24:08;;;;;;;20.15;17.00;;;22.60;99.90;;;;;;5057657;28;20044;-62
2023/10/03 11:26:54;;;;;;;18.30;15.85;;;22.60;99.90;;;;;;5063052;28;20040;-63
2023/10/03 11:29:40;;;;;;;17.13;15.17;;;22.80;1.00;;;;;;5063580;28;20040;-63
2023/10/03 11:32:20;;;;;;;22.00;16.67;;;22.60;1.00;;;;;;5060936;28;20290;-64
2023/10/03 11:34:48;;;;;;;25.88;22.70;;;23.00;99.90;;;;;;5056984;28;20055;-62
2023/10/03 11:37:44;;;;;;;33.75;24.20;;;22.70;99.90;;;;;;5057561;28;20130;-62
2023/10/03 11:40:16;;;;;;;28.02;25.08;;;22.00;99.90;;;;;;5054292;28;20033;-62
2023/10/03 11:42:58;;;;;;;25.83;23.33;;;21.70;99.90;;;;;;5054657;28;20044;-61
2023/10/03 11:45:28;;;;;;;21.67;19.58;;;21.70;99.90;;;;;;5057794;28;20106;-62
2023/10/03 11:48:19;;;;;;;20.58;18.55;;;21.80;99.90;;;;;;5057109;28;20064;-61
2023/10/03 11:50:46;;;;;;;20.73;18.60;;;22.10;99.90;;;;;;5055561;28;20049;-61
2023/10/03 11:53:13;;;;;;;20.00;18.00;;;22.20;99.90;;;;;;5060111;28;20048;-62
2023/10/03 11:55:40;;;;;;;19.75;17.33;;;22.30;99.90;;;;;;5056808;28;20036;-62
2023/10/03 11:58:07;;;;;;;25.88;23.30;;;22.40;99.90;;;;;;5056271;28;20088;-61
2023/10/03 12:00:36;;;;;;;21.67;17.50;;;22.50;99.90;;;;;;5056700;28;20398;-62
2023/10/03 12:03:05;;;;;;;25.35;22.40;;;22.70;99.90;;;;;;5062935;28;20441;-62
2023/10/03 12:05:31;;;;;;;23.17;20.77;;;22.80;99.90;;;;;;5055779;28;20048;-62
2023/10/03 12:07:57;;;;;;;23.10;18.73;;;22.80;99.90;;;;;;5059290;28;20049;-62
2023/10/03 12:10:30;;;;;;;21.98;17.58;;;23.00;99.90;;;;;;5053077;28;20450;-61
2023/10/03 12:12:56;;;;;;;21.17;17.65;;;23.10;99.90;;;;;;5061867;28;20395;-62
2023/10/03 12:15:23;;;;;;;18.33;15.20;;;23.10;99.90;;;;;;5055271;28;20052;-62
2023/10/03 12:17:49;;;;;;;18.70;15.88;;;22.80;99.90;;;;;;5056716;28;20064;-62
2023/10/03 12:20:18;;;;;;;15.90;13.30;;;22.80;1.00;;;;;;5052013;28;20032;-65
2023/10/03 12:22:51;;;;;;;18.58;15.82;;;23.00;99.90;;;;;;5052144;28;20044;-65
2023/10/03 12:25:20;;;;;;;18.58;16.70;;;23.10;99.90;;;;;;5059457;28;20052;-65
2023/10/03 12:27:46;;;;;;;18.02;15.55;;;23.10;99.90;;;;;;5054391;28;20119;-65
2023/10/03 12:30:14;;;;;;;20.48;16.88;;;23.10;43.60;;;;;;5058130;28;20127;-64
2023/10/03 12:32:42;;;;;;;17.02;14.15;;;23.30;99.90;;;;;;5057449;28;20815;-65
2023/10/03 12:35:09;;;;;;;16.02;13.27;;;23.20;1.00;;;;;;5057899;28;20040;-65
2023/10/03 12:37:36;;;;;;;16.08;12.57;;;23.30;1.00;;;;;;5061195;28;20491;-65
2023/10/03 12:40:04;;;;;;;23.58;17.10;;;23.30;1.00;;;;;;5055846;28;20051;-64
2023/10/03 12:42:33;;;;;;;19.70;13.68;;;23.30;99.90;;;;;;5051912;28;20161;-65